Time;durP1;ratioP1;P1;durP2;ratioP2;P2;SDS_P1;SDS_P2;PMS_P1;PMS_P2;Temp;Humidity;BMP_temperature;BMP_pressure;BME280_temperature;BME280_humidity;BME280_pressure;Samples;Min_cycle;Max_cycle;Signal;HPM_P1;HPM_P2
2023/07/27 00:01:21;;;;;;;6.40;3.57;;;12.80;98.00;;;;;;5017417;28;20531;-68
2023/07/27 00:03:51;;;;;;;8.50;3.60;;;12.90;98.00;;;;;;5017369;28;20464;-68
2023/07/27 00:06:20;;;;;;;8.73;3.93;;;13.00;98.00;;;;;;5017232;28;20456;-68
2023/07/27 00:08:47;;;;;;;6.60;3.87;;;12.90;98.00;;;;;;5017196;28;20461;-68
2023/07/27 00:11:15;;;;;;;8.30;3.83;;;12.90;98.00;;;;;;5014842;28;20977;-68
2023/07/27 00:13:42;;;;;;;6.50;3.53;;;13.00;98.00;;;;;;4996945;28;20466;-68
2023/07/27 00:16:09;;;;;;;5.50;3.20;;;13.00;98.00;;;;;;5014231;28;20877;-68
2023/07/27 00:18:37;;;;;;;5.90;3.17;;;12.90;98.00;;;;;;5013886;28;20483;-68
2023/07/27 00:21:05;;;;;;;6.07;3.40;;;12.80;98.00;;;;;;4997028;28;20463;-68
2023/07/27 00:23:33;;;;;;;5.80;3.30;;;12.80;98.00;;;;;;5014093;28;20466;-68
2023/07/27 00:26:00;;;;;;;6.63;3.50;;;12.80;98.00;;;;;;4996803;28;20460;-68
2023/07/27 00:28:27;;;;;;;5.67;3.60;;;12.70;98.00;;;;;;5013981;28;20467;-68
2023/07/27 00:30:54;;;;;;;3.93;2.80;;;12.70;98.00;;;;;;5013810;28;20464;-68
2023/07/27 00:33:21;;;;;;;5.53;2.70;;;12.70;98.00;;;;;;4996319;28;20459;-68
2023/07/27 00:35:55;;;;;;;6.53;3.37;;;12.70;98.00;;;;;;5013621;28;20471;-68
2023/07/27 00:38:23;;;;;;;5.60;2.80;;;12.60;98.00;;;;;;5013610;28;20484;-68
2023/07/27 00:40:51;;;;;;;5.30;2.67;;;12.80;98.00;;;;;;5013596;28;20465;-68
2023/07/27 00:43:19;;;;;;;5.90;3.27;;;12.90;98.00;;;;;;5013587;28;20456;-68
2023/07/27 00:45:49;;;;;;;5.87;2.70;;;12.90;98.00;;;;;;5013428;28;20464;-68
2023/07/27 00:48:16;;;;;;;5.10;2.70;;;12.90;98.00;;;;;;5013415;28;20459;-68
2023/07/27 00:50:43;;;;;;;4.73;3.47;;;12.90;98.00;;;;;;5013417;28;20459;-68
2023/07/27 00:53:10;;;;;;;4.77;2.60;;;12.90;98.00;;;;;;5013395;28;20457;-68
2023/07/27 00:55:39;;;;;;;3.40;2.60;;;13.00;98.00;;;;;;5012846;28;20464;-68
2023/07/27 00:58:07;;;;;;;8.03;3.00;;;13.10;98.00;;;;;;5013318;28;20463;-68
2023/07/27 01:00:34;;;;;;;4.30;2.87;;;13.20;98.00;;;;;;5013159;28;20456;-68
2023/07/27 01:03:03;;;;;;;4.93;2.60;;;13.20;98.00;;;;;;5013399;28;20458;-68
2023/07/27 01:05:30;;;;;;;5.23;3.10;;;13.20;98.00;;;;;;5013201;28;20487;-68
2023/07/27 01:07:58;;;;;;;4.00;2.80;;;13.10;98.00;;;;;;5013385;28;20596;-68
2023/07/27 01:10:36;;;;;;;4.77;2.73;;;13.00;98.00;;;;;;4995642;28;20947;-68
2023/07/27 01:13:10;;;;;;;4.63;3.00;;;13.00;98.00;;;;;;5013086;28;20469;-68
2023/07/27 01:15:44;;;;;;;4.23;2.90;;;12.90;98.00;;;;;;5013056;28;20452;-68
2023/07/27 01:18:19;;;;;;;5.60;2.60;;;12.80;98.00;;;;;;5013085;28;20466;-68
2023/07/27 01:20:51;;;;;;;6.17;3.20;;;12.80;98.00;;;;;;5013228;28;20472;-68
2023/07/27 01:23:35;;;;;;;4.57;2.70;;;12.90;98.00;;;;;;5012857;28;20460;-68
2023/07/27 01:26:30;;;;;;;4.63;2.80;;;13.00;98.00;;;;;;5012827;28;20470;-67
2023/07/27 01:29:07;;;;;;;4.60;2.80;;;13.10;98.00;;;;;;5011458;28;20530;-68
2023/07/27 01:31:42;;;;;;;6.77;3.20;;;13.10;98.00;;;;;;5012633;28;20466;-68
2023/07/27 01:34:15;;;;;;;5.07;3.13;;;12.90;98.00;;;;;;5012667;28;20565;-68
2023/07/27 01:36:44;;;;;;;6.00;3.70;;;12.80;98.00;;;;;;5012536;28;20515;-68
2023/07/27 01:39:13;;;;;;;5.60;3.13;;;12.90;98.00;;;;;;5012531;28;21053;-68
2023/07/27 01:41:43;;;;;;;5.00;3.20;;;12.80;98.00;;;;;;4995275;28;20519;-68
2023/07/27 01:44:11;;;;;;;5.93;3.00;;;12.70;98.00;;;;;;5012721;28;20460;-67
2023/07/27 01:46:40;;;;;;;3.73;2.67;;;12.80;98.00;;;;;;5012503;28;20457;-68
2023/07/27 01:49:10;;;;;;;4.00;2.80;;;12.90;98.00;;;;;;5012505;28;20491;-68
2023/07/27 01:51:38;;;;;;;6.83;3.23;;;12.90;98.00;;;;;;5012195;28;20552;-68
2023/07/27 01:54:08;;;;;;;5.07;2.90;;;13.20;98.00;;;;;;5012364;28;20994;-68
2023/07/27 01:56:38;;;;;;;5.50;2.80;;;13.30;98.00;;;;;;5012032;28;20464;-67
2023/07/27 01:59:07;;;;;;;5.50;3.00;;;13.20;98.00;;;;;;5012378;28;20860;-68
2023/07/27 02:01:36;;;;;;;4.60;2.80;;;13.00;98.00;;;;;;5012162;28;20566;-68
2023/07/27 02:04:06;;;;;;;5.70;2.73;;;12.90;98.00;;;;;;5012144;28;20492;-68
2023/07/27 02:06:34;;;;;;;5.20;3.00;;;12.90;98.00;;;;;;5011793;28;20460;-67
2023/07/27 02:09:01;;;;;;;4.23;2.73;;;12.90;98.00;;;;;;5012174;28;20481;-68
2023/07/27 02:11:28;;;;;;;5.70;3.30;;;13.00;98.00;;;;;;5012149;28;20459;-68
2023/07/27 02:14:01;;;;;;;7.70;2.80;;;13.20;98.00;;;;;;5012347;28;20755;-68
2023/07/27 02:16:37;;;;;;;5.60;2.80;;;13.10;98.00;;;;;;4995158;28;20950;-68
2023/07/27 02:19:06;;;;;;;4.03;3.00;;;13.10;98.00;;;;;;5012009;28;20962;-68
2023/07/27 02:21:35;;;;;;;5.57;3.40;;;12.90;98.00;;;;;;5011754;28;20451;-68
2023/07/27 02:24:03;;;;;;;5.10;3.00;;;12.80;98.00;;;;;;4994283;28;20906;-68
2023/07/27 02:26:30;;;;;;;3.90;2.83;;;12.70;98.00;;;;;;5011753;28;20456;-68
2023/07/27 02:28:57;;;;;;;4.83;3.07;;;12.70;98.00;;;;;;5011754;28;20462;-68
2023/07/27 02:31:24;;;;;;;4.83;3.27;;;12.80;98.00;;;;;;5011674;28;20479;-67
2023/07/27 02:33:52;;;;;;;4.60;2.80;;;12.70;98.00;;;;;;5010957;28;20471;-68
2023/07/27 02:36:21;;;;;;;4.00;2.60;;;12.50;98.00;;;;;;5011845;28;20463;-68
2023/07/27 02:38:48;;;;;;;6.37;3.30;;;12.50;98.00;;;;;;5011561;28;20860;-68
2023/07/27 02:41:15;;;;;;;5.20;3.10;;;12.40;98.00;;;;;;5011642;28;20460;-68
2023/07/27 02:43:45;;;;;;;6.30;3.17;;;12.40;98.00;;;;;;5011408;28;20465;-68
2023/07/27 02:46:12;;;;;;;4.97;2.80;;;12.40;98.00;;;;;;5011545;28;20533;-68
2023/07/27 02:48:39;;;;;;;6.77;2.80;;;12.40;98.00;;;;;;5011534;28;20532;-68
2023/07/27 02:51:06;;;;;;;5.23;3.20;;;12.50;98.00;;;;;;4994155;28;20963;-67
2023/07/27 02:53:34;;;;;;;4.70;2.83;;;12.40;98.00;;;;;;5011333;28;20461;-67
2023/07/27 02:56:03;;;;;;;8.50;3.20;;;12.40;98.00;;;;;;5011359;28;20473;-68
2023/07/27 02:58:31;;;;;;;6.20;2.90;;;12.30;98.00;;;;;;5011210;28;20667;-68
2023/07/27 03:01:00;;;;;;;6.57;2.93;;;12.30;98.00;;;;;;4993941;28;20484;-68
2023/07/27 03:03:27;;;;;;;8.03;3.70;;;12.30;98.00;;;;;;5011351;28;20470;-68
2023/07/27 03:05:58;;;;;;;15.47;5.60;;;12.30;98.00;;;;;;4994176;28;20456;-68
2023/07/27 03:08:25;;;;;;;8.63;4.20;;;12.40;98.00;;;;;;5011625;28;20506;-68
2023/07/27 03:10:54;;;;;;;8.43;4.63;;;12.40;98.00;;;;;;5011334;28;20460;-68
2023/07/27 03:13:21;;;;;;;7.00;4.20;;;12.30;98.00;;;;;;5011358;28;20471;-68
2023/07/27 03:15:48;;;;;;;6.87;3.70;;;12.20;98.00;;;;;;4993778;28;20449;-68
2023/07/27 03:18:16;;;;;;;5.80;3.30;;;12.30;98.00;;;;;;5011183;28;20455;-68
2023/07/27 03:20:44;;;;;;;5.73;3.13;;;12.30;98.00;;;;;;5011070;28;20498;-67
2023/07/27 03:23:12;;;;;;;7.00;3.73;;;12.40;98.00;;;;;;4993898;28;20827;-68
2023/07/27 03:25:39;;;;;;;8.50;3.20;;;12.40;98.00;;;;;;5010146;28;20458;-68
2023/07/27 03:28:08;;;;;;;5.40;3.10;;;12.40;98.00;;;;;;5011016;28;20469;-68
2023/07/27 03:30:36;;;;;;;6.63;3.53;;;12.40;98.00;;;;;;5011071;28;20545;-68
2023/07/27 03:33:03;;;;;;;4.40;3.30;;;12.40;98.00;;;;;;5010948;28;20448;-68
2023/07/27 03:35:32;;;;;;;4.40;2.90;;;12.40;98.00;;;;;;5010951;28;20564;-68
2023/07/27 03:37:59;;;;;;;7.63;2.90;;;12.40;98.00;;;;;;4993378;28;20461;-68
2023/07/27 03:40:26;;;;;;;4.87;3.07;;;12.60;98.00;;;;;;5010974;28;20495;-68
2023/07/27 03:42:53;;;;;;;6.30;3.13;;;12.60;98.00;;;;;;4993658;28;20474;-68
2023/07/27 03:45:22;;;;;;;4.90;2.90;;;12.70;98.00;;;;;;5010952;28;20461;-68
2023/07/27 03:47:49;;;;;;;4.57;2.93;;;12.70;98.00;;;;;;5013805;28;20458;-68
2023/07/27 03:50:16;;;;;;;6.30;3.37;;;12.70;98.00;;;;;;5014790;28;20449;-68
2023/07/27 03:52:43;;;;;;;3.40;2.57;;;12.60;98.00;;;;;;5014518;28;20466;-68
2023/07/27 03:55:11;;;;;;;4.70;2.97;;;12.60;98.00;;;;;;4997128;28;20466;-68
2023/07/27 03:57:39;;;;;;;5.47;3.17;;;12.70;98.00;;;;;;5014127;28;20477;-68
2023/07/27 04:00:07;;;;;;;6.03;2.70;;;12.60;98.00;;;;;;5014524;28;20492;-68
2023/07/27 04:02:37;;;;;;;7.67;3.60;;;12.60;98.00;;;;;;4997308;28;20542;-68
2023/07/27 04:05:04;;;;;;;4.30;2.70;;;12.60;98.00;;;;;;5014469;28;20455;-68
2023/07/27 04:07:31;;;;;;;7.17;3.17;;;12.70;98.00;;;;;;5014297;28;20463;-67
2023/07/27 04:09:59;;;;;;;6.03;2.70;;;12.80;98.00;;;;;;5014219;28;20451;-68
2023/07/27 04:12:26;;;;;;;3.00;2.30;;;12.80;98.00;;;;;;5014286;28;20487;-68
2023/07/27 04:14:53;;;;;;;5.50;2.77;;;12.80;98.00;;;;;;5014225;28;20458;-67
2023/07/27 04:17:20;;;;;;;4.77;2.70;;;12.90;98.00;;;;;;5014046;28;20459;-68
2023/07/27 04:19:50;;;;;;;5.53;2.63;;;12.90;98.00;;;;;;4996585;28;20538;-68
2023/07/27 04:22:17;;;;;;;4.47;2.90;;;13.00;98.00;;;;;;5013631;28;20477;-68
2023/07/27 04:24:45;;;;;;;6.27;3.23;;;13.00;98.00;;;;;;5014020;28;20500;-68
2023/07/27 04:27:12;;;;;;;6.27;3.17;;;12.90;98.00;;;;;;5013945;28;20479;-68
2023/07/27 04:29:39;;;;;;;5.90;2.97;;;12.90;98.00;;;;;;5013800;28;20595;-68
2023/07/27 04:32:07;;;;;;;4.07;2.67;;;12.90;98.00;;;;;;5013992;28;20456;-68
2023/07/27 04:34:34;;;;;;;5.77;2.60;;;12.90;98.00;;;;;;5013619;28;20475;-68
2023/07/27 04:37:04;;;;;;;3.80;2.60;;;12.80;98.00;;;;;;5013534;28;20510;-68
2023/07/27 04:39:31;;;;;;;5.20;2.87;;;12.70;98.00;;;;;;5013365;28;20490;-68
2023/07/27 04:41:58;;;;;;;11.07;2.83;;;12.80;98.00;;;;;;5012372;28;20465;-67
2023/07/27 04:44:26;;;;;;;4.17;2.83;;;12.90;98.00;;;;;;5012449;28;20462;-68
2023/07/27 04:46:53;;;;;;;4.90;3.03;;;13.10;98.00;;;;;;5013389;28;20538;-68
2023/07/27 04:49:21;;;;;;;3.33;2.60;;;13.30;98.00;;;;;;5013740;28;20464;-68
2023/07/27 04:51:48;;;;;;;5.00;3.00;;;13.30;98.00;;;;;;5013440;28;20456;-68
2023/07/27 04:54:17;;;;;;;5.47;3.17;;;13.30;98.00;;;;;;5013579;28;20955;-67
2023/07/27 04:56:44;;;;;;;3.57;2.60;;;13.20;98.00;;;;;;5013425;28;20483;-68
2023/07/27 04:59:11;;;;;;;4.70;2.97;;;13.30;98.00;;;;;;5013550;28;20546;-68
2023/07/27 05:01:38;;;;;;;4.73;3.00;;;13.50;98.00;;;;;;5013315;28;20490;-68
2023/07/27 05:04:06;;;;;;;5.20;2.90;;;13.40;98.00;;;;;;5013271;28;20456;-68
2023/07/27 05:06:34;;;;;;;5.60;2.83;;;13.40;98.00;;;;;;5013312;28;20944;-68
2023/07/27 05:09:01;;;;;;;3.97;2.50;;;13.50;98.00;;;;;;5013140;28;20458;-68
2023/07/27 05:11:30;;;;;;;4.70;2.90;;;13.60;98.00;;;;;;5013164;28;20461;-68
2023/07/27 05:13:57;;;;;;;5.00;2.93;;;13.50;98.00;;;;;;4995406;28;20810;-68
2023/07/27 05:16:24;;;;;;;5.00;2.93;;;13.50;98.00;;;;;;5012915;28;20552;-68
2023/07/27 05:18:52;;;;;;;4.37;2.83;;;13.60;98.00;;;;;;5012759;28;20517;-68
2023/07/27 05:21:19;;;;;;;7.03;3.27;;;13.70;98.00;;;;;;5012991;28;20492;-68
2023/07/27 05:23:46;;;;;;;4.40;3.00;;;13.90;98.00;;;;;;5012776;28;20464;-68
2023/07/27 05:26:13;;;;;;;5.50;3.50;;;14.00;98.00;;;;;;5012821;28;20459;-68
2023/07/27 05:28:42;;;;;;;6.70;3.43;;;13.90;98.00;;;;;;5012682;28;20461;-68
2023/07/27 05:31:09;;;;;;;5.10;3.13;;;14.00;98.00;;;;;;5012578;28;20463;-68
2023/07/27 05:33:45;;;;;;;5.13;3.40;;;14.00;98.00;;;;;;5012454;28;20462;-69
2023/07/27 05:36:12;;;;;;;4.97;3.10;;;14.10;98.00;;;;;;5012746;28;20458;-68
2023/07/27 05:38:41;;;;;;;7.43;3.50;;;14.20;98.00;;;;;;5011302;28;20957;-68
2023/07/27 05:41:08;;;;;;;4.73;3.20;;;14.40;98.00;;;;;;5012686;28;21003;-68
2023/07/27 05:43:35;;;;;;;7.40;3.23;;;14.40;98.00;;;;;;5012649;28;20454;-68
2023/07/27 05:46:04;;;;;;;6.40;3.33;;;14.50;98.00;;;;;;5012756;28;20462;-69
2023/07/27 05:48:33;;;;;;;7.00;2.93;;;14.50;98.00;;;;;;5012536;28;20467;-68
2023/07/27 05:51:00;;;;;;;5.60;3.37;;;14.50;98.00;;;;;;5012702;28;20487;-68
2023/07/27 05:53:27;;;;;;;5.43;3.20;;;14.60;98.00;;;;;;5012344;28;20464;-68
2023/07/27 05:55:56;;;;;;;4.73;3.10;;;14.60;98.00;;;;;;5013159;28;20452;-68
2023/07/27 05:58:23;;;;;;;6.60;3.47;;;14.60;98.00;;;;;;5013354;28;20868;-63
2023/07/27 06:00:51;;;;;;;6.00;3.20;;;14.70;98.00;;;;;;5012575;28;21259;-63
2023/07/27 06:03:19;;;;;;;5.87;2.70;;;14.60;98.00;;;;;;5011668;28;20485;-63
2023/07/27 06:05:47;;;;;;;7.43;3.10;;;14.70;98.00;;;;;;5012035;28;20449;-63
2023/07/27 06:08:14;;;;;;;6.93;2.90;;;14.80;98.00;;;;;;5012492;28;20461;-63
2023/07/27 06:10:41;;;;;;;5.00;3.13;;;14.90;98.00;;;;;;5011418;28;20469;-63
2023/07/27 06:13:10;;;;;;;5.13;3.03;;;15.00;98.00;;;;;;5012034;28;20974;-63
2023/07/27 06:15:37;;;;;;;5.23;3.30;;;15.00;98.00;;;;;;5010811;28;20461;-63
2023/07/27 06:18:06;;;;;;;6.57;3.47;;;15.20;98.00;;;;;;5011814;28;20799;-63
2023/07/27 06:20:35;;;;;;;5.30;3.57;;;15.20;98.00;;;;;;5012005;28;20486;-63
2023/07/27 06:23:02;;;;;;;7.30;3.53;;;15.10;98.00;;;;;;5011919;28;20463;-63
2023/07/27 06:25:29;;;;;;;5.27;3.07;;;15.10;98.00;;;;;;5012063;28;20474;-63
2023/07/27 06:27:56;;;;;;;7.77;3.07;;;15.10;98.00;;;;;;5011721;28;20461;-63
2023/07/27 06:30:23;;;;;;;5.30;3.57;;;15.20;98.00;;;;;;5011932;28;20868;-63
2023/07/27 06:32:50;;;;;;;3.80;2.70;;;15.40;98.00;;;;;;5011723;28;20464;-63
2023/07/27 06:35:17;;;;;;;5.83;3.10;;;15.40;98.00;;;;;;5011696;28;20472;-63
2023/07/27 06:37:45;;;;;;;5.27;3.20;;;15.60;98.00;;;;;;5011513;28;20462;-63
2023/07/27 06:40:13;;;;;;;5.57;3.00;;;15.80;98.00;;;;;;5011675;28;20581;-63
2023/07/27 06:42:40;;;;;;;5.87;3.40;;;15.90;98.00;;;;;;5011500;28;20481;-63
2023/07/27 06:45:08;;;;;;;6.27;3.70;;;16.00;98.00;;;;;;5011715;28;20968;-63
2023/07/27 06:47:36;;;;;;;6.40;3.70;;;16.10;98.00;;;;;;5011922;28;20548;-63
2023/07/27 06:50:03;;;;;;;4.57;2.93;;;16.10;98.00;;;;;;5011750;28;20467;-63
2023/07/27 06:52:30;;;;;;;4.93;3.10;;;16.20;98.00;;;;;;5011720;28;20529;-63
2023/07/27 06:54:58;;;;;;;3.70;2.70;;;16.20;98.00;;;;;;5011330;28;20464;-64
2023/07/27 06:57:27;;;;;;;7.60;3.50;;;16.50;98.00;;;;;;5011658;28;20521;-64
2023/07/27 06:59:54;;;;;;;10.20;3.30;;;16.60;98.00;;;;;;4993809;28;20514;-63
2023/07/27 07:02:21;;;;;;;6.70;3.23;;;16.70;98.00;;;;;;5011679;28;20804;-63
2023/07/27 07:04:48;;;;;;;6.30;3.37;;;16.80;98.00;;;;;;5013912;28;20749;-64
2023/07/27 07:07:15;;;;;;;4.13;2.73;;;16.80;98.00;;;;;;5030465;28;20470;-64
2023/07/27 07:09:43;;;;;;;5.97;3.37;;;16.80;98.00;;;;;;5030989;28;20454;-63
2023/07/27 07:12:11;;;;;;;5.30;2.77;;;16.90;98.00;;;;;;5030872;28;20468;-63
2023/07/27 07:14:38;;;;;;;3.83;2.60;;;17.10;98.00;;;;;;5030907;28;20465;-64
2023/07/27 07:17:06;;;;;;;3.77;2.83;;;17.10;98.00;;;;;;5030777;28;20460;-63
2023/07/27 07:19:33;;;;;;;4.03;2.80;;;17.20;98.00;;;;;;5030810;28;20482;-64
2023/07/27 07:22:00;;;;;;;5.67;2.90;;;17.40;98.00;;;;;;5034207;28;20593;-63
2023/07/27 07:24:28;;;;;;;4.27;2.70;;;17.40;98.00;;;;;;5034457;28;20453;-64
2023/07/27 07:26:56;;;;;;;5.83;3.40;;;17.50;98.00;;;;;;5017453;28;20455;-64
2023/07/27 07:29:26;;;;;;;4.17;2.83;;;17.60;98.00;;;;;;5017292;28;20534;-63
2023/07/27 07:31:53;;;;;;;5.33;2.77;;;17.80;98.00;;;;;;5034285;28;20466;-63
2023/07/27 07:34:20;;;;;;;5.60;2.73;;;17.70;98.00;;;;;;5034429;28;20463;-64
2023/07/27 07:36:47;;;;;;;6.53;3.07;;;17.80;98.00;;;;;;5034699;28;20454;-64
2023/07/27 07:39:14;;;;;;;5.17;3.10;;;17.90;98.00;;;;;;5034494;28;20481;-64
2023/07/27 07:41:41;;;;;;;6.00;3.10;;;18.10;98.00;;;;;;5034606;28;20903;-64
2023/07/27 07:44:09;;;;;;;6.17;2.53;;;18.30;98.00;;;;;;5034572;28;20488;-64
2023/07/27 07:46:38;;;;;;;6.67;3.30;;;18.30;98.00;;;;;;5034389;28;20461;-64
2023/07/27 07:49:05;;;;;;;4.00;2.63;;;18.30;98.00;;;;;;5034544;28;20458;-64
2023/07/27 07:51:32;;;;;;;5.40;2.97;;;18.40;98.00;;;;;;5034182;28;20477;-63
2023/07/27 07:53:59;;;;;;;4.10;2.37;;;18.40;98.00;;;;;;5033953;28;20517;-62
2023/07/27 07:56:26;;;;;;;4.50;1.90;;;18.60;98.00;;;;;;5034401;28;20463;-62
2023/07/27 07:58:55;;;;;;;2.57;2.20;;;18.80;98.00;;;;;;5034190;28;20525;-62
2023/07/27 08:01:22;;;;;;;2.20;2.00;;;19.20;98.00;;;;;;5016990;28;20850;-62
2023/07/27 08:03:51;;;;;;;2.70;1.87;;;19.40;98.00;;;;;;5034271;28;20468;-62
2023/07/27 08:06:18;;;;;;;7.43;2.57;;;19.50;98.00;;;;;;5016746;28;20512;-62
2023/07/27 08:08:47;;;;;;;3.40;2.43;;;19.70;98.00;;;;;;5034100;28;20455;-62
2023/07/27 08:11:14;;;;;;;2.90;2.30;;;19.80;98.00;;;;;;5034106;28;20450;-62
2023/07/27 08:13:41;;;;;;;3.10;2.40;;;19.90;98.00;;;;;;5033867;28;20458;-62
2023/07/27 08:16:08;;;;;;;4.70;2.63;;;20.00;98.00;;;;;;5034142;28;20446;-62
2023/07/27 08:18:35;;;;;;;3.40;2.60;;;19.90;98.00;;;;;;5034226;28;20477;-62
2023/07/27 08:21:05;;;;;;;3.90;2.53;;;19.80;98.00;;;;;;5033945;28;20896;-62
2023/07/27 08:23:32;;;;;;;3.27;2.43;;;19.90;98.00;;;;;;5033869;28;20454;-62
2023/07/27 08:26:01;;;;;;;3.30;2.40;;;19.90;98.00;;;;;;5033856;28;20454;-62
2023/07/27 08:28:28;;;;;;;3.20;2.27;;;20.00;98.00;;;;;;5033822;28;20446;-62
2023/07/27 08:30:56;;;;;;;5.20;2.60;;;20.10;98.00;;;;;;5016504;28;20478;-62
2023/07/27 08:33:24;;;;;;;3.13;2.30;;;20.20;98.00;;;;;;5033385;28;20639;-62
2023/07/27 08:35:51;;;;;;;4.60;2.60;;;20.20;98.00;;;;;;5031234;28;20839;-62
2023/07/27 08:38:20;;;;;;;3.30;2.40;;;20.20;98.00;;;;;;5028094;28;20822;-62
2023/07/27 08:40:54;;;;;;;3.37;2.37;;;20.10;98.00;;;;;;5024288;28;20530;-62
2023/07/27 08:43:22;;;;;;;4.10;2.67;;;20.10;98.00;;;;;;5006099;28;20534;-62
2023/07/27 08:45:50;;;;;;;4.70;2.60;;;20.10;98.00;;;;;;5022863;28;20458;-62
2023/07/27 08:48:17;;;;;;;3.30;2.37;;;20.10;98.00;;;;;;5022550;28;20450;-62
2023/07/27 08:50:45;;;;;;;3.57;2.67;;;20.20;98.00;;;;;;5018258;28;20942;-62
2023/07/27 08:53:13;;;;;;;4.17;2.60;;;20.20;98.00;;;;;;4996900;28;20493;-62
2023/07/27 08:55:42;;;;;;;4.47;2.53;;;20.30;98.00;;;;;;5014173;28;20464;-63
2023/07/27 08:58:09;;;;;;;4.77;2.63;;;20.20;98.00;;;;;;5014027;28;20468;-63
2023/07/27 09:00:38;;;;;;;3.30;2.57;;;20.20;98.00;;;;;;5013761;28;20513;-63
2023/07/27 09:03:07;;;;;;;4.57;2.50;;;20.10;98.00;;;;;;5013758;28;20483;-63
2023/07/27 09:05:41;;;;;;;3.40;2.10;;;20.10;98.00;;;;;;5036254;28;20551;-64
2023/07/27 09:08:09;;;;;;;5.03;2.50;;;20.10;98.00;;;;;;5035903;28;20462;-63
2023/07/27 09:10:37;;;;;;;3.83;2.63;;;20.10;98.00;;;;;;5053018;28;20461;-63
2023/07/27 09:13:06;;;;;;;3.77;2.40;;;20.10;98.00;;;;;;5053586;28;20462;-63
2023/07/27 09:15:36;;;;;;;3.40;2.40;;;20.10;98.00;;;;;;5047417;28;20804;-63
2023/07/27 09:18:10;;;;;;;5.93;2.50;;;20.10;98.00;;;;;;5033544;28;20459;-63
2023/07/27 09:20:37;;;;;;;3.20;2.30;;;20.10;98.00;;;;;;5033676;28;20458;-63
2023/07/27 09:23:05;;;;;;;2.63;2.30;;;20.00;98.00;;;;;;5033663;28;20481;-63
2023/07/27 09:25:32;;;;;;;3.27;2.40;;;20.00;98.00;;;;;;5033665;28;20470;-63
2023/07/27 09:27:59;;;;;;;3.00;2.37;;;20.00;98.00;;;;;;5033665;28;20789;-63
2023/07/27 09:30:28;;;;;;;4.00;2.43;;;20.00;98.00;;;;;;5015583;28;20459;-64
2023/07/27 09:32:55;;;;;;;3.80;2.33;;;20.00;98.00;;;;;;5032324;28;20864;-63
2023/07/27 09:35:22;;;;;;;4.90;2.63;;;20.00;98.00;;;;;;5015571;28;20458;-63
2023/07/27 09:37:51;;;;;;;2.90;2.20;;;19.90;98.00;;;;;;5032673;28;21064;-63
2023/07/27 09:40:20;;;;;;;3.70;2.40;;;19.80;98.00;;;;;;5015745;28;20447;-64
2023/07/27 09:42:47;;;;;;;2.73;2.20;;;19.80;98.00;;;;;;5032717;28;20493;-64
2023/07/27 09:45:15;;;;;;;3.67;2.40;;;19.70;98.00;;;;;;5014744;28;20461;-64
2023/07/27 09:47:44;;;;;;;3.60;2.30;;;19.70;98.00;;;;;;5032765;28;20459;-63
2023/07/27 09:50:12;;;;;;;3.30;2.27;;;19.50;98.00;;;;;;5032829;28;20469;-64
2023/07/27 09:52:40;;;;;;;4.50;2.33;;;19.60;98.00;;;;;;5015095;28;20486;-64
2023/07/27 09:55:07;;;;;;;3.00;2.30;;;19.50;98.00;;;;;;5032718;28;20858;-63
2023/07/27 09:57:35;;;;;;;3.40;2.47;;;19.50;98.00;;;;;;5032474;28;20463;-63
2023/07/27 10:00:06;;;;;;;3.40;2.30;;;19.50;98.00;;;;;;5032473;28;20497;-64
2023/07/27 10:02:34;;;;;;;4.07;2.60;;;19.40;98.00;;;;;;5032254;28;20486;-63
2023/07/27 10:05:05;;;;;;;2.60;2.10;;;19.50;98.00;;;;;;5032482;28;20645;-64
2023/07/27 10:07:32;;;;;;;3.50;2.20;;;19.50;98.00;;;;;;5032150;28;20520;-63
2023/07/27 10:10:26;;;;;;;3.50;2.23;;;19.70;98.00;;;;;;5032412;28;20449;-63
2023/07/27 10:12:56;;;;;;;4.20;2.90;;;19.70;98.00;;;;;;5032406;28;20495;-63
2023/07/27 10:15:27;;;;;;;4.67;2.77;;;19.70;98.00;;;;;;5032231;28;20545;-63
2023/07/27 10:17:58;;;;;;;6.97;2.37;;;19.80;98.00;;;;;;5032241;28;20466;-63
2023/07/27 10:20:29;;;;;;;3.60;2.63;;;19.90;98.00;;;;;;5032357;28;20458;-63
2023/07/27 10:23:10;;;;;;;3.30;2.20;;;20.00;98.00;;;;;;5032246;28;20497;-63
2023/07/27 10:26:06;;;;;;;4.50;2.10;;;20.10;98.00;;;;;;5032346;28;20527;-63
2023/07/27 10:28:37;;;;;;;3.63;2.20;;;20.10;98.00;;;;;;5032373;28;20465;-63
2023/07/27 10:31:17;;;;;;;2.83;2.30;;;20.10;98.00;;;;;;5032302;28;20461;-63
2023/07/27 10:33:46;;;;;;;4.50;2.20;;;20.10;98.00;;;;;;5032009;28;20458;-64
2023/07/27 10:36:15;;;;;;;3.03;2.33;;;20.10;98.00;;;;;;5032487;28;20559;-64
2023/07/27 10:38:51;;;;;;;6.43;2.80;;;20.10;98.00;;;;;;5032008;28;20562;-63
2023/07/27 10:41:21;;;;;;;2.47;2.10;;;20.10;98.00;;;;;;5015633;28;20458;-63
2023/07/27 10:44:21;;;;;;;4.00;2.50;;;20.10;98.00;;;;;;5031828;28;20963;-64
2023/07/27 10:46:48;;;;;;;3.10;2.20;;;20.10;98.00;;;;;;4935228;29;21039;-63
2023/07/27 10:49:17;;;;;;;3.07;2.17;;;20.10;98.00;;;;;;4935344;29;20468;-63
2023/07/27 10:51:47;;;;;;;2.30;2.00;;;20.10;98.00;;;;;;4971754;28;20459;-63
2023/07/27 10:54:15;;;;;;;2.83;2.07;;;20.00;98.00;;;;;;5031795;28;20497;-63
2023/07/27 10:56:44;;;;;;;3.70;2.20;;;20.00;98.00;;;;;;5031196;28;20484;-63
2023/07/27 10:59:15;;;;;;;2.27;1.97;;;20.10;98.00;;;;;;5031764;28;20660;-63
2023/07/27 11:01:47;;;;;;;3.20;2.20;;;20.10;98.00;;;;;;5031548;28;20527;-64
2023/07/27 11:04:15;;;;;;;2.20;1.90;;;20.00;98.00;;;;;;5014084;28;20459;-64
2023/07/27 11:06:44;;;;;;;3.70;2.17;;;20.00;98.00;;;;;;5014205;28;20449;-63
2023/07/27 11:09:14;;;;;;;4.17;2.40;;;20.00;98.00;;;;;;5031115;28;20534;-64
2023/07/27 11:11:41;;;;;;;3.13;2.47;;;20.00;98.00;;;;;;5031724;28;20459;-63
2023/07/27 11:14:08;;;;;;;3.87;2.17;;;20.00;98.00;;;;;;5031638;28;20450;-63
2023/07/27 11:16:39;;;;;;;3.80;2.20;;;20.10;98.00;;;;;;5031398;28;20456;-64
2023/07/27 11:19:09;;;;;;;3.33;2.50;;;20.10;98.00;;;;;;5031309;28;20501;-64
2023/07/27 11:21:40;;;;;;;2.87;1.93;;;20.20;98.00;;;;;;5031539;28;20549;-63
2023/07/27 11:24:15;;;;;;;3.23;2.43;;;20.20;98.00;;;;;;5050402;28;20461;-63
2023/07/27 11:26:43;;;;;;;4.37;2.40;;;20.20;98.00;;;;;;5051362;28;21037;-63
2023/07/27 11:29:13;;;;;;;3.73;2.47;;;20.30;98.00;;;;;;5051573;28;20480;-63
2023/07/27 11:31:40;;;;;;;2.60;2.10;;;20.30;98.00;;;;;;5051412;28;20465;-64
2023/07/27 11:34:07;;;;;;;2.40;2.03;;;20.30;98.00;;;;;;5051257;28;20515;-64
2023/07/27 11:36:34;;;;;;;5.13;2.30;;;20.40;98.00;;;;;;5051257;28;20457;-65
2023/07/27 11:39:03;;;;;;;2.30;1.97;;;20.50;98.00;;;;;;5051281;28;20458;-64
2023/07/27 11:41:33;;;;;;;4.77;2.33;;;20.60;98.00;;;;;;5051069;28;20450;-65
2023/07/27 11:44:00;;;;;;;3.00;2.20;;;20.60;98.00;;;;;;5051149;28;20453;-65
2023/07/27 11:46:28;;;;;;;3.07;2.17;;;20.70;98.00;;;;;;5051145;28;20449;-64
2023/07/27 11:48:57;;;;;;;4.47;2.27;;;20.80;98.00;;;;;;5051060;28;20548;-64
2023/07/27 11:51:27;;;;;;;3.23;2.03;;;20.80;98.00;;;;;;5051421;28;20484;-64
2023/07/27 11:53:54;;;;;;;3.50;2.33;;;20.80;98.00;;;;;;5033490;28;20473;-65
2023/07/27 11:56:22;;;;;;;5.40;2.23;;;20.90;98.00;;;;;;5051185;28;20456;-64
2023/07/27 11:58:51;;;;;;;5.57;1.90;;;21.00;98.00;;;;;;5051064;28;20870;-64
2023/07/27 12:01:18;;;;;;;3.20;2.10;;;21.10;98.00;;;;;;5051193;28;20469;-64
2023/07/27 12:03:46;;;;;;;3.77;2.20;;;21.10;98.00;;;;;;5028117;28;20560;-64
2023/07/27 12:06:13;;;;;;;3.30;2.20;;;21.10;98.00;;;;;;5033195;28;20453;-65
2023/07/27 12:08:41;;;;;;;3.60;2.30;;;21.10;98.00;;;;;;5053774;28;20469;-65
2023/07/27 12:11:09;;;;;;;3.07;2.20;;;21.20;98.00;;;;;;5054199;28;20847;-65
2023/07/27 12:13:37;;;;;;;5.07;2.57;;;21.20;98.00;;;;;;5053957;28;20465;-65
2023/07/27 12:16:10;;;;;;;6.43;2.43;;;21.20;98.00;;;;;;5054620;28;20503;-66
2023/07/27 12:18:37;;;;;;;3.73;2.30;;;21.10;98.00;;;;;;5053847;28;20544;-66
2023/07/27 12:21:05;;;;;;;3.63;2.50;;;21.10;98.00;;;;;;5036394;28;20485;-66
2023/07/27 12:23:32;;;;;;;3.93;2.53;;;21.00;98.00;;;;;;5053358;28;20482;-66
2023/07/27 12:26:02;;;;;;;11.43;2.20;;;20.90;98.00;;;;;;5053795;28;20454;-66
2023/07/27 12:28:31;;;;;;;3.70;2.50;;;20.80;98.00;;;;;;5054064;28;20609;-66
2023/07/27 12:30:58;;;;;;;3.40;2.37;;;20.70;98.00;;;;;;5053867;28;20476;-66
2023/07/27 12:33:28;;;;;;;4.27;2.40;;;20.60;98.00;;;;;;5053847;28;20970;-66
2023/07/27 12:35:55;;;;;;;6.40;3.03;;;20.60;98.00;;;;;;5053620;28;20456;-66
2023/07/27 12:38:24;;;;;;;3.97;2.70;;;20.60;98.00;;;;;;5053684;28;20453;-66
2023/07/27 12:40:51;;;;;;;3.87;2.37;;;20.60;98.00;;;;;;5036083;28;21096;-66
2023/07/27 12:43:18;;;;;;;4.70;2.80;;;20.60;98.00;;;;;;5053375;28;21088;-66
2023/07/27 12:45:45;;;;;;;4.40;2.30;;;20.60;98.00;;;;;;5053399;28;20450;-66
2023/07/27 12:48:12;;;;;;;3.67;2.60;;;20.50;98.00;;;;;;5053569;28;20875;-66
2023/07/27 12:50:41;;;;;;;4.40;2.47;;;20.50;98.00;;;;;;5053256;28;20566;-66
2023/07/27 12:53:08;;;;;;;3.33;2.30;;;20.40;98.00;;;;;;5053380;28;20515;-66